Time;durP1;ratioP1;P1;durP2;ratioP2;P2;SDS_P1;SDS_P2;PMS_P1;PMS_P2;Temp;Humidity;BMP_temperature;BMP_pressure;BME280_temperature;BME280_humidity;BME280_pressure;Samples;Min_cycle;Max_cycle;Signal;HPM_P1;HPM_P2
2021/11/17 02:27:46;;;;;;;70.23;33.73;;;8.50;99.90;;;;;;5082385;28;20215;-77
2021/11/17 02:30:43;;;;;;;68.77;34.03;;;8.50;99.90;;;;;;5088487;28;20228;-78
2021/11/17 02:33:24;;;;;;;73.17;33.53;;;8.50;99.90;;;;;;5088926;28;20196;-78
2021/11/17 02:36:18;;;;;;;66.00;33.87;;;8.50;99.90;;;;;;5088394;28;20228;-78
2021/11/17 02:39:01;;;;;;;67.20;32.63;;;8.60;99.90;;;;;;5087864;28;20837;-79
2021/11/17 02:41:53;;;;;;;68.83;33.10;;;8.50;99.90;;;;;;5088867;28;20189;-79
2021/11/17 02:44:43;;;;;;;74.77;34.30;;;8.60;99.90;;;;;;5087909;28;20197;-77
2021/11/17 02:47:24;;;;;;;70.70;33.77;;;8.60;99.90;;;;;;5089038;28;20184;-79
2021/11/17 02:50:08;;;;;;;71.00;33.37;;;8.60;99.90;;;;;;5088963;28;20200;-78
2021/11/17 02:52:50;;;;;;;75.33;35.53;;;8.60;99.90;;;;;;5087386;28;20204;-79
2021/11/17 02:55:39;;;;;;;69.33;36.00;;;8.60;99.90;;;;;;5069930;28;20255;-80
2021/11/17 02:58:29;;;;;;;71.27;35.67;;;8.60;99.90;;;;;;5087714;28;20211;-78
2021/11/17 03:01:31;;;;;;;75.87;35.67;;;8.60;99.90;;;;;;5086442;28;20193;-78
2021/11/17 03:04:13;;;;;;;70.93;34.67;;;8.70;99.90;;;;;;5088827;28;20211;-78
2021/11/17 03:06:55;;;;;;;72.43;34.93;;;8.70;99.90;;;;;;5087274;28;20205;-79
2021/11/17 03:09:37;;;;;;;70.73;33.83;;;8.70;99.90;;;;;;5088031;28;20189;-80
2021/11/17 03:12:26;;;;;;;75.43;36.53;;;8.70;99.90;;;;;;5087939;28;20189;-79
2021/11/17 03:15:11;;;;;;;70.70;34.37;;;8.70;99.90;;;;;;5087819;28;20228;-80
2021/11/17 03:17:53;;;;;;;74.67;35.17;;;8.70;99.90;;;;;;5088195;28;20651;-79
2021/11/17 03:20:48;;;;;;;69.97;33.97;;;8.70;99.90;;;;;;5087068;28;20201;-79
2021/11/17 03:23:28;;;;;;;72.10;34.60;;;8.70;99.90;;;;;;5087277;28;20611;-78
2021/11/17 03:26:07;;;;;;;70.57;33.40;;;8.80;99.90;;;;;;5087715;28;20196;-79
2021/11/17 03:28:57;;;;;;;69.40;34.30;;;8.80;99.90;;;;;;5087551;28;20200;-78
2021/11/17 03:31:38;;;;;;;69.77;33.10;;;8.70;99.90;;;;;;5087504;28;20203;-79
2021/11/17 03:34:19;;;;;;;67.23;33.17;;;8.70;99.90;;;;;;5087093;28;20234;-79
2021/11/17 03:37:14;;;;;;;76.27;35.10;;;8.70;99.90;;;;;;5088476;28;20205;-79
2021/11/17 03:40:17;;;;;;;72.40;36.13;;;8.70;99.90;;;;;;5084847;28;20205;-79
2021/11/17 03:43:14;;;;;;;68.60;33.17;;;8.70;99.90;;;;;;5087818;28;20192;-79
2021/11/17 03:45:55;;;;;;;70.33;35.40;;;8.70;99.90;;;;;;5084379;28;20215;-79
2021/11/17 03:48:47;;;;;;;66.80;34.87;;;8.80;99.90;;;;;;5086852;28;20204;-79
2021/11/17 03:51:27;;;;;;;71.93;35.07;;;8.80;99.90;;;;;;5087785;28;20193;-78
2021/11/17 03:54:13;;;;;;;71.27;33.97;;;8.70;99.90;;;;;;5087719;28;20197;-79
2021/11/17 03:57:02;;;;;;;62.07;34.80;;;8.80;99.90;;;;;;5089038;28;20193;-80
2021/11/17 03:59:42;;;;;;;71.27;36.53;;;8.80;99.90;;;;;;5088304;28;20237;-78
2021/11/17 04:02:26;;;;;;;65.43;34.17;;;8.80;99.90;;;;;;5087760;28;20603;-79
2021/11/17 04:05:12;;;;;;;70.03;34.50;;;8.80;99.90;;;;;;5087316;28;20483;-80
2021/11/17 04:07:55;;;;;;;68.03;34.37;;;8.80;99.90;;;;;;5086750;28;20208;-79
2021/11/17 04:10:37;;;;;;;65.93;35.33;;;8.80;99.90;;;;;;5086435;28;20206;-79
2021/11/17 04:13:14;;;;;;;71.67;36.43;;;8.80;99.90;;;;;;5087179;28;20216;-78
2021/11/17 04:16:06;;;;;;;69.33;36.00;;;8.90;99.90;;;;;;5085632;28;20228;-78
2021/11/17 04:18:45;;;;;;;68.03;34.50;;;8.90;99.90;;;;;;5086883;28;20196;-79
2021/11/17 04:21:29;;;;;;;69.50;36.30;;;8.90;99.90;;;;;;5086382;28;20237;-79
2021/11/17 04:24:10;;;;;;;75.37;37.23;;;8.90;99.90;;;;;;5085702;28;20593;-79
2021/11/17 04:26:51;;;;;;;77.00;36.47;;;8.90;99.90;;;;;;5086421;28;20212;-78
2021/11/17 04:29:32;;;;;;;73.77;35.67;;;9.00;99.90;;;;;;5085424;28;20655;-78
2021/11/17 04:32:22;;;;;;;73.83;36.13;;;9.00;99.90;;;;;;5086823;28;20611;-80
2021/11/17 04:35:24;;;;;;;75.70;37.27;;;9.00;99.90;;;;;;5086175;28;20236;-80
2021/11/17 04:38:14;;;;;;;79.13;37.60;;;9.10;99.90;;;;;;5065750;28;20287;-78
2021/11/17 04:40:58;;;;;;;79.37;37.13;;;9.00;99.90;;;;;;5086364;28;20216;-78
2021/11/17 04:43:58;;;;;;;71.60;36.93;;;9.10;99.90;;;;;;5085188;28;20204;-79
2021/11/17 04:46:41;;;;;;;69.53;35.53;;;9.10;99.90;;;;;;5085626;28;20212;-79
2021/11/17 04:49:20;;;;;;;77.57;38.43;;;9.10;99.90;;;;;;5086675;28;20198;-79
2021/11/17 04:52:12;;;;;;;67.27;34.83;;;9.10;99.90;;;;;;5086051;28;20200;-79
2021/11/17 04:54:57;;;;;;;83.20;38.17;;;9.10;99.90;;;;;;5086002;28;20239;-80
2021/11/17 04:57:57;;;;;;;70.60;36.37;;;9.10;99.90;;;;;;5084863;28;20220;-79
2021/11/17 05:00:39;;;;;;;80.03;37.80;;;9.10;99.90;;;;;;5085378;28;20812;-79
2021/11/17 05:03:18;;;;;;;74.87;36.50;;;9.10;99.90;;;;;;5085437;28;20204;-80
2021/11/17 05:06:00;;;;;;;67.47;34.33;;;9.00;99.90;;;;;;5085517;28;20546;-79
2021/11/17 05:08:36;;;;;;;87.20;39.00;;;9.10;99.90;;;;;;5085790;28;20211;-78
2021/11/17 05:11:17;;;;;;;74.67;37.17;;;9.10;99.90;;;;;;5085605;28;20236;-80
2021/11/17 05:13:51;;;;;;;79.63;36.20;;;9.10;99.90;;;;;;5086426;28;20771;-79
2021/11/17 05:16:36;;;;;;;83.00;38.30;;;9.10;99.90;;;;;;5086816;28;20227;-80
2021/11/17 05:19:11;;;;;;;82.03;37.70;;;9.10;99.90;;;;;;5086180;28;20528;-79
2021/11/17 05:21:52;;;;;;;77.83;36.20;;;9.20;99.90;;;;;;5086222;28;20501;-80
2021/11/17 05:24:37;;;;;;;67.33;34.83;;;9.20;99.90;;;;;;5086729;28;20204;-80
2021/11/17 05:27:21;;;;;;;77.13;37.20;;;9.20;99.90;;;;;;5085540;28;20226;-79
2021/11/17 05:30:04;;;;;;;78.80;36.30;;;9.20;99.90;;;;;;5086653;28;20506;-79
2021/11/17 05:32:56;;;;;;;72.87;36.17;;;9.20;99.90;;;;;;5085386;28;20211;-80
2021/11/17 05:35:35;;;;;;;78.97;34.60;;;9.30;99.90;;;;;;5085139;28;20224;-79
2021/11/17 05:38:14;;;;;;;79.90;38.23;;;9.30;99.90;;;;;;5086177;28;20189;-80
2021/11/17 05:41:02;;;;;;;87.50;39.47;;;9.40;99.90;;;;;;5084898;28;20204;-80
2021/11/17 05:43:44;;;;;;;80.70;39.03;;;9.50;99.90;;;;;;5073926;23;20249;-78
2021/11/17 05:46:23;;;;;;;78.97;37.30;;;9.60;99.90;;;;;;5065984;28;20250;-80
2021/11/17 05:49:02;;;;;;;85.97;38.73;;;9.60;99.90;;;;;;5065285;28;20197;-80
2021/11/17 05:51:49;;;;;;;80.10;38.23;;;9.60;99.90;;;;;;5064267;28;20201;-80
2021/11/17 05:54:29;;;;;;;85.37;38.30;;;9.60;99.90;;;;;;5064847;28;20288;-79
2021/11/17 05:57:09;;;;;;;80.20;37.43;;;9.70;99.90;;;;;;5066266;28;20204;-80
2021/11/17 06:00:02;;;;;;;88.47;40.20;;;9.70;99.90;;;;;;5065502;28;20203;-80
2021/11/17 06:02:43;;;;;;;74.27;36.60;;;9.70;99.90;;;;;;5065073;28;20198;-79
2021/11/17 06:05:10;;;;;;;74.13;35.73;;;9.70;99.90;;;;;;5045760;28;20512;-79
2021/11/17 06:07:36;;;;;;;68.73;35.87;;;9.70;99.90;;;;;;5050878;28;20258;-79
2021/11/17 06:10:08;;;;;;;73.23;35.23;;;9.70;99.90;;;;;;5065694;28;20197;-81
2021/11/17 06:12:35;;;;;;;68.97;32.87;;;9.70;99.90;;;;;;5065507;28;20615;-82
2021/11/17 06:15:04;;;;;;;57.33;27.57;;;9.70;99.90;;;;;;5065390;28;20224;-80
2021/11/17 06:17:31;;;;;;;25.17;11.20;;;9.70;99.90;;;;;;5065079;28;20220;-81
2021/11/17 06:19:58;;;;;;;20.23;10.33;;;9.90;99.90;;;;;;5065179;28;20239;-79
2021/11/17 06:22:28;;;;;;;18.37;10.30;;;10.10;99.90;;;;;;5064276;28;20291;-80
2021/11/17 06:24:59;;;;;;;18.47;10.87;;;10.20;99.90;;;;;;5064402;28;20205;-81
2021/11/17 06:27:29;;;;;;;18.20;10.60;;;10.30;99.90;;;;;;5065818;28;20189;-81
2021/11/17 06:29:58;;;;;;;18.70;10.43;;;10.30;99.90;;;;;;5065693;28;20593;-81
2021/11/17 06:32:26;;;;;;;21.80;11.93;;;10.40;99.90;;;;;;5065155;28;20593;-80
2021/11/17 06:34:55;;;;;;;23.63;12.83;;;10.50;99.90;;;;;;5066312;28;20208;-80
2021/11/17 06:37:24;;;;;;;22.53;13.13;;;10.50;99.90;;;;;;5064382;28;20778;-81
2021/11/17 06:39:53;;;;;;;24.97;13.17;;;10.60;99.90;;;;;;5065344;28;20759;-81
2021/11/17 06:42:23;;;;;;;20.90;11.33;;;10.70;99.90;;;;;;5065633;28;20333;-80
2021/11/17 06:44:53;;;;;;;20.53;10.60;;;10.70;99.90;;;;;;5064462;28;20292;-80
2021/11/17 06:47:20;;;;;;;21.40;10.80;;;10.70;99.90;;;;;;5067201;28;20205;-80
2021/11/17 06:49:46;;;;;;;22.03;11.83;;;10.80;99.90;;;;;;5068402;28;20530;-80
2021/11/17 06:52:13;;;;;;;21.30;12.63;;;10.90;99.90;;;;;;5048826;28;20618;-80
2021/11/17 06:54:41;;;;;;;23.33;12.63;;;11.00;99.90;;;;;;5056642;28;20236;-80
2021/11/17 06:57:08;;;;;;;26.20;12.67;;;11.10;99.90;;;;;;5068308;28;20227;-80
2021/11/17 06:59:34;;;;;;;24.00;12.27;;;11.20;99.90;;;;;;5067863;28;20745;-80
2021/11/17 07:02:05;;;;;;;26.87;13.00;;;11.30;99.90;;;;;;5069325;28;20205;-80
2021/11/17 07:04:33;;;;;;;22.47;11.40;;;11.20;99.90;;;;;;5067130;28;20205;-81
2021/11/17 07:06:59;;;;;;;21.07;10.47;;;11.30;99.90;;;;;;5068365;28;20832;-80
2021/11/17 07:09:27;;;;;;;25.57;10.03;;;11.30;99.90;;;;;;5068300;28;20527;-80
2021/11/17 07:12:30;;;;;;;18.63;9.60;;;11.30;99.90;;;;;;5060897;28;20601;-79
2021/11/17 07:14:57;;;;;;;15.47;8.70;;;11.30;99.90;;;;;;5068554;28;20600;-80
2021/11/17 07:17:25;;;;;;;18.27;10.13;;;11.30;99.90;;;;;;5068880;28;20193;-79
2021/11/17 07:19:52;;;;;;;18.33;9.60;;;11.30;99.90;;;;;;5068387;28;20209;-80
2021/11/17 07:22:19;;;;;;;18.33;10.17;;;11.30;99.90;;;;;;5068696;28;20216;-78
2021/11/17 07:24:46;;;;;;;20.87;9.93;;;11.30;99.90;;;;;;5068492;28;20208;-80
2021/11/17 07:27:18;;;;;;;24.13;11.47;;;11.40;99.90;;;;;;5067521;28;20244;-79
2021/11/17 07:29:45;;;;;;;20.20;11.60;;;11.40;99.90;;;;;;5067051;28;20231;-81
2021/11/17 07:32:12;;;;;;;22.90;11.00;;;11.40;99.90;;;;;;5068313;28;20209;-82
2021/11/17 07:34:41;;;;;;;19.17;9.87;;;11.40;99.90;;;;;;5059595;28;20225;-80
2021/11/17 07:37:08;;;;;;;16.90;9.10;;;11.50;99.90;;;;;;5047771;28;20290;-80
2021/11/17 07:39:34;;;;;;;14.87;9.53;;;11.50;99.90;;;;;;5047497;28;20213;-78
2021/11/17 07:42:01;;;;;;;15.27;8.27;;;11.40;99.90;;;;;;5048004;28;20658;-80
2021/11/17 07:44:28;;;;;;;17.37;8.20;;;11.40;99.90;;;;;;5057306;28;20202;-81
2021/11/17 07:46:57;;;;;;;22.00;8.77;;;11.40;99.90;;;;;;5066883;28;20598;-79
2021/11/17 07:49:26;;;;;;;12.80;7.30;;;11.50;99.90;;;;;;5066847;28;20497;-80
2021/11/17 07:51:55;;;;;;;14.60;6.40;;;11.50;99.90;;;;;;5067252;28;20528;-78
2021/11/17 07:54:23;;;;;;;17.27;5.47;;;11.60;99.90;;;;;;5067017;28;20201;-77
2021/11/17 07:56:51;;;;;;;14.13;6.23;;;11.60;99.90;;;;;;5067657;28;20468;-79
2021/11/17 07:59:21;;;;;;;19.80;5.60;;;11.70;99.90;;;;;;5065194;28;20209;-78
2021/11/17 08:01:49;;;;;;;17.80;5.97;;;11.70;99.90;;;;;;5066669;28;20201;-80
2021/11/17 08:04:18;;;;;;;11.30;4.93;;;11.70;99.90;;;;;;5067045;28;20948;-78
2021/11/17 08:06:46;;;;;;;15.90;6.80;;;11.70;99.90;;;;;;5066200;28;20394;-79
2021/11/17 08:09:15;;;;;;;13.27;4.93;;;11.70;99.90;;;;;;5065822;28;20880;-79
2021/11/17 08:11:43;;;;;;;16.20;5.03;;;11.70;99.90;;;;;;5066826;28;20213;-78
2021/11/17 08:14:11;;;;;;;10.03;3.50;;;11.70;99.90;;;;;;5067082;28;20201;-77
2021/11/17 08:16:39;;;;;;;13.30;3.43;;;11.70;99.90;;;;;;5066668;28;20227;-79
2021/11/17 08:19:05;;;;;;;8.37;3.13;;;11.80;99.90;;;;;;5066434;28;20216;-79
2021/11/17 08:21:33;;;;;;;10.53;3.10;;;11.80;99.90;;;;;;5065963;28;20190;-78
2021/11/17 08:24:00;;;;;;;12.27;3.07;;;11.80;99.90;;;;;;5067166;28;20201;-78
2021/11/17 08:26:28;;;;;;;10.80;3.27;;;11.90;99.90;;;;;;5066740;28;20513;-79
2021/11/17 08:28:55;;;;;;;11.70;2.93;;;11.90;99.90;;;;;;5065677;28;20201;-79
2021/11/17 08:31:24;;;;;;;9.67;3.60;;;11.80;99.90;;;;;;5066259;28;20205;-79
2021/11/17 08:33:52;;;;;;;10.60;2.83;;;11.90;99.90;;;;;;5066373;28;20205;-78
2021/11/17 08:36:19;;;;;;;9.20;2.77;;;11.90;99.90;;;;;;5065297;28;20213;-78
2021/11/17 08:38:46;;;;;;;11.67;2.13;;;11.90;99.90;;;;;;5065368;28;20208;-78
2021/11/17 08:41:13;;;;;;;11.20;3.13;;;11.90;99.90;;;;;;5066530;28;20206;-78
2021/11/17 08:43:42;;;;;;;11.60;2.80;;;11.90;99.90;;;;;;5064952;28;20233;-78
2021/11/17 08:46:10;;;;;;;9.77;2.73;;;11.90;99.90;;;;;;5066454;28;20201;-78
2021/11/17 08:48:38;;;;;;;11.53;3.20;;;11.90;99.90;;;;;;5065657;28;20375;-79
2021/11/17 08:51:08;;;;;;;9.63;2.60;;;11.90;99.90;;;;;;5064619;28;20258;-79
2021/11/17 08:53:36;;;;;;;9.47;2.40;;;12.00;99.90;;;;;;5065574;28;20820;-78
2021/11/17 08:56:04;;;;;;;8.83;2.33;;;12.00;99.90;;;;;;5065529;28;20546;-79
2021/11/17 08:58:32;;;;;;;10.17;2.50;;;12.00;99.90;;;;;;5065232;28;20304;-77
2021/11/17 09:01:00;;;;;;;9.93;2.47;;;12.00;99.90;;;;;;5065957;28;20204;-78
2021/11/17 09:03:28;;;;;;;9.40;2.43;;;11.90;99.90;;;;;;5064753;28;20240;-78
2021/11/17 09:05:57;;;;;;;9.93;2.33;;;12.00;99.90;;;;;;5065150;28;20221;-78
2021/11/17 09:08:25;;;;;;;9.20;2.03;;;11.90;99.90;;;;;;5065327;28;20209;-79
2021/11/17 09:10:55;;;;;;;13.23;3.10;;;12.00;99.90;;;;;;5064401;28;20262;-76
2021/11/17 09:13:22;;;;;;;9.93;2.47;;;12.00;99.90;;;;;;5065301;28;20659;-78
2021/11/17 09:15:50;;;;;;;9.63;2.40;;;12.00;99.90;;;;;;5048061;28;20201;-79
2021/11/17 09:18:21;;;;;;;11.73;2.47;;;12.00;99.90;;;;;;5063961;28;20205;-77
2021/11/17 09:20:48;;;;;;;8.40;2.70;;;12.10;99.90;;;;;;5065315;28;20201;-79
2021/11/17 09:23:17;;;;;;;9.57;2.73;;;12.10;99.90;;;;;;5066134;28;20212;-78
2021/11/17 09:25:44;;;;;;;15.60;3.23;;;12.10;99.90;;;;;;5062692;28;20470;-78
2021/11/17 09:28:13;;;;;;;11.30;2.57;;;12.10;99.90;;;;;;5065366;28;20197;-78
2021/11/17 09:30:40;;;;;;;11.00;2.67;;;12.10;99.90;;;;;;5065011;28;20205;-78
2021/11/17 09:33:09;;;;;;;8.43;2.57;;;12.10;99.90;;;;;;5064657;28;20207;-78
2021/11/17 09:35:38;;;;;;;9.83;2.57;;;12.10;99.90;;;;;;5064257;28;20724;-79
2021/11/17 09:38:07;;;;;;;10.23;2.73;;;12.10;99.90;;;;;;5065353;28;20225;-79
2021/11/17 09:40:37;;;;;;;8.27;2.10;;;12.10;99.90;;;;;;5065018;28;20197;-77
2021/11/17 09:43:04;;;;;;;13.17;2.57;;;12.10;99.90;;;;;;5065040;28;20243;-77
2021/11/17 09:45:32;;;;;;;16.83;2.90;;;12.10;99.90;;;;;;5064517;28;20283;-78
2021/11/17 09:48:00;;;;;;;10.57;2.30;;;12.20;99.90;;;;;;5063919;28;20690;-78
2021/11/17 09:50:31;;;;;;;9.47;2.57;;;12.20;99.90;;;;;;5064366;28;20981;-78
2021/11/17 09:53:03;;;;;;;10.07;3.40;;;12.20;99.90;;;;;;5063695;28;21044;-79
2021/11/17 09:55:33;;;;;;;9.60;2.40;;;12.30;99.90;;;;;;5064900;28;20316;-78
2021/11/17 09:58:08;;;;;;;9.93;2.60;;;12.40;99.90;;;;;;5065019;28;20233;-78
2021/11/17 10:00:41;;;;;;;13.00;2.80;;;12.30;99.90;;;;;;5063335;28;20189;-78
2021/11/17 10:03:13;;;;;;;10.23;3.00;;;12.30;99.90;;;;;;5065290;28;20208;-78
2021/11/17 10:09:18;;;;;;;8.63;2.60;;;12.30;99.90;;;;;;5039303;28;20317;-76
2021/11/17 10:14:52;;;;;;;11.37;3.53;;;12.20;99.90;;;;;;5053646;28;20240;-77
2021/11/17 10:17:36;;;;;;;14.70;2.93;;;12.10;99.90;;;;;;5063966;28;20804;-78
2021/11/17 10:20:17;;;;;;;9.67;3.63;;;12.10;99.90;;;;;;5064007;28;20217;-77
2021/11/17 10:22:49;;;;;;;9.37;2.67;;;12.00;99.90;;;;;;5067051;28;20201;-78
2021/11/17 10:25:19;;;;;;;11.70;2.60;;;12.00;99.90;;;;;;5068504;28;20201;-78
2021/11/17 10:27:56;;;;;;;12.20;2.90;;;12.00;99.90;;;;;;5068663;28;20193;-77
2021/11/17 10:30:35;;;;;;;13.60;3.00;;;12.00;99.90;;;;;;5067874;28;20217;-78
2021/11/17 10:33:09;;;;;;;15.97;3.37;;;12.00;99.90;;;;;;5068544;28;20632;-78
2021/11/17 10:35:39;;;;;;;19.10;3.80;;;12.00;99.90;;;;;;5067520;28;20585;-78
2021/11/17 10:38:11;;;;;;;20.07;4.23;;;12.00;99.90;;;;;;5066593;28;20256;-78
2021/11/17 10:40:49;;;;;;;24.53;4.67;;;12.10;99.90;;;;;;5067737;28;20221;-75
2021/11/17 10:43:20;;;;;;;23.33;4.23;;;12.20;99.90;;;;;;5067775;28;20315;-78
2021/11/17 10:45:49;;;;;;;14.23;3.03;;;12.20;99.90;;;;;;5068049;28;20838;-77
2021/11/17 10:48:22;;;;;;;20.27;4.00;;;12.40;99.90;;;;;;5067628;28;20204;-78
2021/11/17 10:50:49;;;;;;;17.53;3.87;;;12.40;99.90;;;;;;5066650;28;20201;-77
2021/11/17 10:53:29;;;;;;;15.67;3.17;;;12.40;99.90;;;;;;5067737;28;20216;-78
2021/11/17 10:55:59;;;;;;;12.03;3.50;;;12.50;99.90;;;;;;5067311;28;20248;-78
2021/11/17 10:58:29;;;;;;;17.10;3.47;;;12.40;99.90;;;;;;5067185;28;20236;-78
2021/11/17 11:00:59;;;;;;;13.30;3.57;;;12.40;99.90;;;;;;5068473;28;20209;-78
2021/11/17 11:03:29;;;;;;;18.63;4.13;;;12.50;99.90;;;;;;5066681;28;20495;-78
2021/11/17 11:06:02;;;;;;;18.23;4.33;;;12.50;99.90;;;;;;5068254;28;20199;-78
2021/11/17 11:08:32;;;;;;;13.30;3.17;;;12.50;99.90;;;;;;5067359;28;20204;-78
2021/11/17 11:11:04;;;;;;;22.27;3.63;;;12.60;99.90;;;;;;5067743;28;20676;-78
2021/11/17 11:13:37;;;;;;;15.40;4.47;;;12.60;99.90;;;;;;5067512;28;20201;-78
2021/11/17 11:16:12;;;;;;;19.13;3.57;;;12.70;99.90;;;;;;5067774;28;20543;-75
2021/11/17 11:18:45;;;;;;;23.70;4.37;;;12.70;99.90;;;;;;5067347;28;20182;-76
2021/11/17 11:21:15;;;;;;;21.47;4.10;;;12.80;99.90;;;;;;5067805;28;20201;-77
2021/11/17 11:24:09;;;;;;;26.87;4.93;;;12.80;99.90;;;;;;5067247;28;20573;-78
2021/11/17 11:27:10;;;;;;;19.90;4.03;;;12.80;99.90;;;;;;5066459;28;20727;-76
2021/11/17 11:29:39;;;;;;;24.87;4.50;;;12.80;99.90;;;;;;5066911;28;20200;-77
2021/11/17 11:32:08;;;;;;;18.47;4.00;;;12.80;99.90;;;;;;5066551;28;20196;-77
2021/11/17 11:34:47;;;;;;;23.87;5.53;;;12.80;99.90;;;;;;5067276;28;20201;-78
2021/11/17 11:37:46;;;;;;;21.33;4.67;;;12.80;99.90;;;;;;5066580;28;20233;-78
2021/11/17 11:40:29;;;;;;;22.60;3.97;;;12.90;99.90;;;;;;5054381;28;20201;-77
2021/11/17 11:43:23;;;;;;;21.53;4.13;;;13.00;99.90;;;;;;5066669;28;20236;-76
2021/11/17 11:45:53;;;;;;;14.00;3.03;;;13.00;99.90;;;;;;5065888;28;20683;-77
2021/11/17 11:49:05;;;;;;;20.13;3.90;;;13.00;99.90;;;;;;5066915;28;20220;-78
2021/11/17 11:51:52;;;;;;;19.60;3.73;;;13.00;99.90;;;;;;5066688;28;20208;-77
2021/11/17 11:54:25;;;;;;;19.60;4.27;;;13.00;99.90;;;;;;5065819;28;20201;-78
2021/11/17 11:56:55;;;;;;;15.07;3.33;;;13.00;99.90;;;;;;5066855;28;20217;-79
2021/11/17 11:59:27;;;;;;;17.70;3.70;;;12.90;99.90;;;;;;5065863;28;20197;-76
2021/11/17 12:02:07;;;;;;;13.40;3.00;;;12.90;99.90;;;;;;5066680;28;20209;-77
2021/11/17 12:04:35;;;;;;;11.63;3.10;;;12.90;99.90;;;;;;5067046;28;20209;-77
2021/11/17 12:07:07;;;;;;;9.17;2.80;;;12.90;99.90;;;;;;5066210;28;20232;-77
2021/11/17 12:09:37;;;;;;;12.80;2.63;;;12.90;99.90;;;;;;5066353;28;20216;-76
2021/11/17 12:12:08;;;;;;;11.90;2.63;;;12.80;99.90;;;;;;5066199;28;20217;-76
2021/11/17 12:14:43;;;;;;;12.97;3.17;;;12.80;99.90;;;;;;5065463;28;20212;-76
2021/11/17 12:17:11;;;;;;;16.30;3.90;;;12.70;99.90;;;;;;5066129;28;20351;-77
2021/11/17 12:19:45;;;;;;;17.40;2.77;;;12.60;99.90;;;;;;5065911;28;20709;-76
2021/11/17 12:22:16;;;;;;;10.13;2.50;;;12.50;99.90;;;;;;5065588;28;20193;-77
2021/11/17 12:24:45;;;;;;;11.00;2.60;;;12.50;99.90;;;;;;5065497;28;20197;-76
2021/11/17 12:27:15;;;;;;;13.87;2.73;;;12.50;99.90;;;;;;5066012;28;20300;-76
2021/11/17 12:29:54;;;;;;;17.97;3.60;;;12.40;99.90;;;;;;5065422;28;20201;-76
2021/11/17 12:32:27;;;;;;;8.90;3.37;;;12.40;99.90;;;;;;5046058;28;20198;-77
2021/11/17 12:35:05;;;;;;;14.37;2.00;;;12.40;99.90;;;;;;5045886;28;20213;-75
2021/11/17 12:37:36;;;;;;;12.33;2.67;;;12.40;99.90;;;;;;5049988;28;20205;-75
2021/11/17 12:40:12;;;;;;;10.13;2.30;;;12.30;99.90;;;;;;5067102;28;20201;-76
2021/11/17 12:42:52;;;;;;;13.47;2.80;;;12.30;99.90;;;;;;5065161;28;20243;-74
2021/11/17 12:45:24;;;;;;;16.93;3.20;;;12.20;99.90;;;;;;5064575;28;20283;-76
2021/11/17 12:47:55;;;;;;;13.17;2.57;;;12.30;99.90;;;;;;5066050;28;20212;-76
2021/11/17 12:50:26;;;;;;;13.77;2.70;;;12.20;99.90;;;;;;5064737;28;20222;-76
2021/11/17 12:52:59;;;;;;;11.57;2.70;;;12.30;99.90;;;;;;5065979;28;20200;-76
2021/11/17 12:55:30;;;;;;;14.67;3.30;;;12.30;99.90;;;;;;5065751;28;20213;-76
2021/11/17 12:58:03;;;;;;;13.93;3.90;;;12.40;99.90;;;;;;5064569;28;20224;-74
2021/11/17 13:00:56;;;;;;;15.30;3.30;;;12.40;99.90;;;;;;5065348;28;20774;-77
2021/11/17 13:03:34;;;;;;;19.93;3.40;;;12.40;99.90;;;;;;5054480;28;20644;-76
2021/11/17 13:06:18;;;;;;;16.73;3.33;;;12.40;99.90;;;;;;5064779;28;20201;-75
2021/11/17 13:08:45;;;;;;;10.97;2.47;;;12.30;99.90;;;;;;5065331;28;20225;-74
2021/11/17 13:11:17;;;;;;;13.20;2.67;;;12.40;99.90;;;;;;5064609;28;20992;-74
2021/11/17 13:13:47;;;;;;;12.53;2.60;;;12.30;99.90;;;;;;5065848;28;20205;-75
2021/11/17 13:16:21;;;;;;;9.93;2.27;;;12.20;99.90;;;;;;5065441;28;20205;-76
2021/11/17 13:18:55;;;;;;;10.47;3.00;;;12.20;99.90;;;;;;5064954;28;20225;-77
2021/11/17 13:21:32;;;;;;;8.83;3.03;;;12.10;99.90;;;;;;5064783;28;20209;-76
2021/11/17 13:24:09;;;;;;;15.50;2.67;;;12.00;99.90;;;;;;5064841;28;20197;-75
2021/11/17 13:26:38;;;;;;;9.97;2.40;;;12.00;99.90;;;;;;5065016;28;20217;-76
2021/11/17 13:29:24;;;;;;;15.90;3.37;;;11.90;99.90;;;;;;5065205;28;20494;-75
2021/11/17 13:31:54;;;;;;;14.27;3.33;;;11.90;99.90;;;;;;5044772;28;20206;-75
2021/11/17 13:34:38;;;;;;;13.30;2.60;;;11.90;99.90;;;;;;5055175;28;20213;-76
2021/11/17 13:37:22;;;;;;;10.47;3.10;;;12.00;99.90;;;;;;5065228;28;20320;-76
2021/11/17 13:39:53;;;;;;;14.80;3.13;;;11.90;99.90;;;;;;5044821;28;20193;-76
2021/11/17 13:42:21;;;;;;;13.03;3.73;;;12.00;99.90;;;;;;5059048;28;20544;-77
2021/11/17 13:44:48;;;;;;;15.13;3.10;;;12.00;99.90;;;;;;5064864;28;20212;-77
2021/11/17 13:47:18;;;;;;;12.50;2.80;;;12.00;99.90;;;;;;5064730;28;20209;-75
2021/11/17 13:49:48;;;;;;;12.10;2.73;;;12.10;99.90;;;;;;5064384;28;20222;-78
2021/11/17 13:52:19;;;;;;;11.30;2.53;;;12.10;99.90;;;;;;5063717;28;20855;-77
2021/11/17 13:54:46;;;;;;;11.47;3.70;;;12.10;99.90;;;;;;5064576;28;20224;-76
2021/11/17 13:57:15;;;;;;;9.67;2.07;;;12.10;99.90;;;;;;5066052;28;20201;-77
2021/11/17 13:59:42;;;;;;;16.67;3.17;;;12.10;99.90;;;;;;5068111;28;20577;-76
2021/11/17 14:02:09;;;;;;;11.53;2.90;;;12.10;99.90;;;;;;5067840;28;20274;-74
2021/11/17 14:04:37;;;;;;;18.47;3.50;;;12.00;99.90;;;;;;5069286;28;20204;-76
2021/11/17 14:07:06;;;;;;;11.13;2.73;;;12.00;99.90;;;;;;5068458;28;20197;-77
2021/11/17 14:09:34;;;;;;;15.10;2.90;;;12.00;99.90;;;;;;5068562;28;20212;-77
2021/11/17 14:12:02;;;;;;;14.27;3.43;;;11.90;99.90;;;;;;5068826;28;20205;-77
2021/11/17 14:14:30;;;;;;;11.00;2.73;;;11.80;99.90;;;;;;5067542;28;20979;-76
2021/11/17 14:16:57;;;;;;;13.37;3.00;;;11.80;99.90;;;;;;5066126;28;20201;-76
2021/11/17 14:19:24;;;;;;;14.57;2.97;;;11.80;99.90;;;;;;5068045;28;20232;-76
2021/11/17 14:21:53;;;;;;;15.50;3.23;;;11.80;99.90;;;;;;5047799;28;20220;-75
2021/11/17 14:24:20;;;;;;;9.70;3.47;;;11.70;99.90;;;;;;5048476;28;20210;-76
2021/11/17 14:26:49;;;;;;;18.77;3.40;;;11.70;99.90;;;;;;5065490;28;20209;-75
2021/11/17 14:29:19;;;;;;;16.90;3.63;;;11.70;99.90;;;;;;5067134;28;20205;-77
2021/11/17 14:31:51;;;;;;;15.23;3.47;;;11.70;99.90;;;;;;5068237;28;20201;-75
2021/11/17 14:34:18;;;;;;;11.73;2.70;;;11.70;99.90;;;;;;5066598;28;20212;-76
2021/11/17 14:36:49;;;;;;;14.00;3.30;;;11.60;99.90;;;;;;5068019;28;20613;-75
2021/11/17 14:39:19;;;;;;;13.83;3.60;;;11.60;99.90;;;;;;5068349;28;20217;-76
2021/11/17 14:41:47;;;;;;;15.20;3.60;;;11.60;99.90;;;;;;5067272;28;20245;-76
2021/11/17 14:44:15;;;;;;;16.13;2.77;;;11.60;99.90;;;;;;5067950;28;20193;-77
2021/11/17 14:46:42;;;;;;;17.60;3.97;;;11.70;99.90;;;;;;5067424;28;20216;-76
2021/11/17 14:49:11;;;;;;;16.10;3.07;;;11.70;99.90;;;;;;5067565;28;20251;-76
2021/11/17 14:51:38;;;;;;;15.67;2.90;;;11.70;99.90;;;;;;5067891;28;20201;-76
2021/11/17 14:54:05;;;;;;;9.77;2.57;;;11.60;99.90;;;;;;5067345;28;20205;-75
2021/11/17 14:56:33;;;;;;;16.57;2.90;;;11.60;99.90;;;;;;5067144;28;20993;-75
2021/11/17 14:59:00;;;;;;;9.83;2.77;;;11.70;99.90;;;;;;5066897;28;20236;-78
2021/11/17 15:01:31;;;;;;;23.53;3.37;;;11.70;99.90;;;;;;5067226;28;20204;-76
2021/11/17 15:03:59;;;;;;;13.80;3.97;;;11.60;99.90;;;;;;5066811;28;20617;-76
2021/11/17 15:06:26;;;;;;;15.27;2.70;;;11.70;99.90;;;;;;5066572;28;20518;-76
2021/11/17 15:08:54;;;;;;;13.93;3.13;;;11.60;99.90;;;;;;5067025;28;20201;-75
2021/11/17 15:11:22;;;;;;;16.70;3.37;;;11.60;99.90;;;;;;5066845;28;20228;-78
2021/11/17 15:13:50;;;;;;;11.57;3.40;;;11.60;99.90;;;;;;5067072;28;20205;-79
2021/11/17 15:16:18;;;;;;;17.07;3.07;;;11.50;99.90;;;;;;5066292;28;20212;-75
2021/11/17 15:18:47;;;;;;;12.47;2.83;;;11.40;99.90;;;;;;5067028;28;20237;-76
2021/11/17 15:21:15;;;;;;;13.30;3.03;;;11.40;99.90;;;;;;5064720;28;20606;-75
2021/11/17 15:23:45;;;;;;;13.70;2.63;;;11.50;99.90;;;;;;5066830;28;20205;-77
2021/11/17 15:26:12;;;;;;;12.03;2.73;;;11.40;99.90;;;;;;5066585;28;20656;-77
2021/11/17 15:28:42;;;;;;;9.50;2.57;;;11.40;99.90;;;;;;5066814;28;20552;-76
2021/11/17 15:31:13;;;;;;;11.63;2.90;;;11.30;99.90;;;;;;5067006;28;20209;-75
2021/11/17 15:33:40;;;;;;;13.57;3.13;;;11.20;99.90;;;;;;5067135;28;20612;-75
2021/11/17 15:36:08;;;;;;;14.17;2.60;;;11.20;99.90;;;;;;5067683;28;20212;-77
2021/11/17 15:38:36;;;;;;;9.50;3.30;;;11.20;99.90;;;;;;5066202;28;20244;-76
2021/11/17 15:41:06;;;;;;;8.13;2.10;;;11.20;99.90;;;;;;5067614;28;20201;-76
2021/11/17 15:43:34;;;;;;;10.20;2.70;;;11.10;99.90;;;;;;5066117;28;20234;-76
2021/11/17 15:46:01;;;;;;;11.37;2.50;;;11.10;99.90;;;;;;5066323;28;20213;-79
2021/11/17 15:48:34;;;;;;;8.17;2.23;;;11.10;99.90;;;;;;5066475;28;20205;-76